sensor_id;sensor_type;location;lat;lon;timestamp;temperature;humidity
42019;DHT22;27703;51.980;5.848;2023-03-09T00:00:21;2.10;99.90
42019;DHT22;27703;51.980;5.848;2023-03-09T00:02:50;2.10;99.90
42019;DHT22;27703;51.980;5.848;2023-03-09T00:05:16;2.10;99.90
42019;DHT22;27703;51.980;5.848;2023-03-09T00:07:43;2.10;99.90
42019;DHT22;27703;51.980;5.848;2023-03-09T00:10:13;2.10;99.90
42019;DHT22;27703;51.980;5.848;2023-03-09T00:12:39;2.10;99.90
42019;DHT22;27703;51.980;5.848;2023-03-09T00:15:05;2.10;99.90
42019;DHT22;27703;51.980;5.848;2023-03-09T00:17:30;2.10;99.90
42019;DHT22;27703;51.980;5.848;2023-03-09T00:19:56;2.10;99.90
42019;DHT22;27703;51.980;5.848;2023-03-09T00:22:28;2.10;99.90
42019;DHT22;27703;51.980;5.848;2023-03-09T00:24:54;2.10;99.90
42019;DHT22;27703;51.980;5.848;2023-03-09T00:27:21;2.10;99.90
42019;DHT22;27703;51.980;5.848;2023-03-09T00:29:46;2.00;99.90
42019;DHT22;27703;51.980;5.848;2023-03-09T00:32:12;2.10;99.90
42019;DHT22;27703;51.980;5.848;2023-03-09T00:34:37;2.10;99.90
42019;DHT22;27703;51.980;5.848;2023-03-09T00:37:03;2.10;99.90
42019;DHT22;27703;51.980;5.848;2023-03-09T00:39:29;2.00;99.90
42019;DHT22;27703;51.980;5.848;2023-03-09T00:41:54;2.00;99.90
42019;DHT22;27703;51.980;5.848;2023-03-09T00:44:20;2.00;99.90
42019;DHT22;27703;51.980;5.848;2023-03-09T00:46:45;2.00;99.90
42019;DHT22;27703;51.980;5.848;2023-03-09T00:49:13;2.00;99.90
42019;DHT22;27703;51.980;5.848;2023-03-09T00:51:38;2.00;99.90
42019;DHT22;27703;51.980;5.848;2023-03-09T00:54:05;2.00;99.90
42019;DHT22;27703;51.980;5.848;2023-03-09T00:56:30;2.00;99.90
42019;DHT22;27703;51.980;5.848;2023-03-09T00:58:57;2.00;99.90
42019;DHT22;27703;51.980;5.848;2023-03-09T01:01:24;2.00;99.90
42019;DHT22;27703;51.980;5.848;2023-03-09T01:03:50;2.00;99.90
42019;DHT22;27703;51.980;5.848;2023-03-09T01:06:16;2.00;99.90
42019;DHT22;27703;51.980;5.848;2023-03-09T01:08:42;2.10;99.90
42019;DHT22;27703;51.980;5.848;2023-03-09T01:11:11;2.00;99.90
42019;DHT22;27703;51.980;5.848;2023-03-09T01:13:37;2.00;99.90
42019;DHT22;27703;51.980;5.848;2023-03-09T01:16:03;2.00;99.90
42019;DHT22;27703;51.980;5.848;2023-03-09T01:18:29;2.00;99.90
42019;DHT22;27703;51.980;5.848;2023-03-09T01:20:55;2.00;99.90
42019;DHT22;27703;51.980;5.848;2023-03-09T01:23:20;2.00;99.90
42019;DHT22;27703;51.980;5.848;2023-03-09T01:25:46;2.00;99.90
42019;DHT22;27703;51.980;5.848;2023-03-09T01:28:12;2.00;99.90
42019;DHT22;27703;51.980;5.848;2023-03-09T01:30:38;2.00;99.90
42019;DHT22;27703;51.980;5.848;2023-03-09T01:33:03;2.00;99.90
42019;DHT22;27703;51.980;5.848;2023-03-09T01:35:29;2.10;99.90
42019;DHT22;27703;51.980;5.848;2023-03-09T01:37:54;2.10;99.90
42019;DHT22;27703;51.980;5.848;2023-03-09T01:40:23;2.10;99.90
42019;DHT22;27703;51.980;5.848;2023-03-09T01:43:00;2.10;99.90
42019;DHT22;27703;51.980;5.848;2023-03-09T01:47:52;2.10;99.90
42019;DHT22;27703;51.980;5.848;2023-03-09T01:50:21;2.10;99.90
42019;DHT22;27703;51.980;5.848;2023-03-09T01:52:49;2.10;99.90
42019;DHT22;27703;51.980;5.848;2023-03-09T01:55:19;2.10;99.90
42019;DHT22;27703;51.980;5.848;2023-03-09T01:57:53;2.10;99.90
42019;DHT22;27703;51.980;5.848;2023-03-09T02:00:22;2.10;99.90
42019;DHT22;27703;51.980;5.848;2023-03-09T02:02:57;2.10;99.90
42019;DHT22;27703;51.980;5.848;2023-03-09T02:05:30;2.10;99.90
42019;DHT22;27703;51.980;5.848;2023-03-09T02:07:57;2.10;99.90
42019;DHT22;27703;51.980;5.848;2023-03-09T02:10:35;2.10;99.90
42019;DHT22;27703;51.980;5.848;2023-03-09T02:13:08;2.10;99.90
42019;DHT22;27703;51.980;5.848;2023-03-09T02:15:35;2.10;99.90
42019;DHT22;27703;51.980;5.848;2023-03-09T02:18:01;2.20;99.90
42019;DHT22;27703;51.980;5.848;2023-03-09T02:26:20;2.10;99.90
42019;DHT22;27703;51.980;5.848;2023-03-09T02:28:46;2.10;99.90
42019;DHT22;27703;51.980;5.848;2023-03-09T02:31:13;2.10;99.90
42019;DHT22;27703;51.980;5.848;2023-03-09T02:33:40;2.10;99.90
42019;DHT22;27703;51.980;5.848;2023-03-09T02:36:06;2.10;99.90
42019;DHT22;27703;51.980;5.848;2023-03-09T02:38:31;2.10;99.90
42019;DHT22;27703;51.980;5.848;2023-03-09T02:40:59;2.10;99.90
42019;DHT22;27703;51.980;5.848;2023-03-09T02:43:28;2.10;99.90
42019;DHT22;27703;51.980;5.848;2023-03-09T02:45:55;2.10;99.90
42019;DHT22;27703;51.980;5.848;2023-03-09T02:48:21;2.00;99.90
42019;DHT22;27703;51.980;5.848;2023-03-09T02:50:46;2.10;99.90
42019;DHT22;27703;51.980;5.848;2023-03-09T02:53:12;2.10;99.90
42019;DHT22;27703;51.980;5.848;2023-03-09T02:55:37;2.10;99.90
42019;DHT22;27703;51.980;5.848;2023-03-09T02:58:03;2.10;99.90
42019;DHT22;27703;51.980;5.848;2023-03-09T03:00:28;2.10;99.90
42019;DHT22;27703;51.980;5.848;2023-03-09T03:02:54;2.10;99.90
42019;DHT22;27703;51.980;5.848;2023-03-09T03:05:20;2.10;99.90
42019;DHT22;27703;51.980;5.848;2023-03-09T03:07:46;2.10;99.90
42019;DHT22;27703;51.980;5.848;2023-03-09T03:10:12;2.10;99.90
42019;DHT22;27703;51.980;5.848;2023-03-09T03:12:38;2.10;99.90
42019;DHT22;27703;51.980;5.848;2023-03-09T03:15:05;2.10;99.90
42019;DHT22;27703;51.980;5.848;2023-03-09T03:17:30;2.10;99.90
42019;DHT22;27703;51.980;5.848;2023-03-09T03:19:56;2.10;99.90
42019;DHT22;27703;51.980;5.848;2023-03-09T03:22:22;2.10;99.90
42019;DHT22;27703;51.980;5.848;2023-03-09T03:24:47;2.10;99.90
42019;DHT22;27703;51.980;5.848;2023-03-09T03:27:13;2.10;99.90
42019;DHT22;27703;51.980;5.848;2023-03-09T03:29:39;2.10;99.90
42019;DHT22;27703;51.980;5.848;2023-03-09T03:32:05;2.20;99.90
42019;DHT22;27703;51.980;5.848;2023-03-09T03:34:31;2.10;99.90
42019;DHT22;27703;51.980;5.848;2023-03-09T03:36:56;2.10;99.90
42019;DHT22;27703;51.980;5.848;2023-03-09T03:39:22;2.10;99.90
42019;DHT22;27703;51.980;5.848;2023-03-09T03:41:47;2.10;99.90
42019;DHT22;27703;51.980;5.848;2023-03-09T03:44:13;2.20;99.90
42019;DHT22;27703;51.980;5.848;2023-03-09T03:46:39;2.10;99.90
42019;DHT22;27703;51.980;5.848;2023-03-09T03:49:04;2.10;99.90
42019;DHT22;27703;51.980;5.848;2023-03-09T03:51:30;2.10;99.90
42019;DHT22;27703;51.980;5.848;2023-03-09T03:53:55;2.10;99.90
42019;DHT22;27703;51.980;5.848;2023-03-09T03:56:21;2.10;99.90
42019;DHT22;27703;51.980;5.848;2023-03-09T03:58:47;2.10;99.90
42019;DHT22;27703;51.980;5.848;2023-03-09T04:01:13;2.10;99.90
42019;DHT22;27703;51.980;5.848;2023-03-09T04:03:38;2.20;99.90
42019;DHT22;27703;51.980;5.848;2023-03-09T04:06:04;2.10;99.90
42019;DHT22;27703;51.980;5.848;2023-03-09T04:08:31;2.20;99.90
42019;DHT22;27703;51.980;5.848;2023-03-09T04:10:57;2.20;99.90
42019;DHT22;27703;51.980;5.848;2023-03-09T04:13:23;2.10;99.90
42019;DHT22;27703;51.980;5.848;2023-03-09T04:15:48;2.10;99.90
42019;DHT22;27703;51.980;5.848;2023-03-09T04:18:15;2.20;99.90
42019;DHT22;27703;51.980;5.848;2023-03-09T04:20:41;2.10;99.90
42019;DHT22;27703;51.980;5.848;2023-03-09T04:23:08;2.10;99.90
42019;DHT22;27703;51.980;5.848;2023-03-09T04:25:34;2.20;99.90
42019;DHT22;27703;51.980;5.848;2023-03-09T04:28:00;2.20;99.90
42019;DHT22;27703;51.980;5.848;2023-03-09T04:30:25;2.20;99.90
42019;DHT22;27703;51.980;5.848;2023-03-09T04:32:51;2.20;99.90
42019;DHT22;27703;51.980;5.848;2023-03-09T04:35:17;2.20;99.90
42019;DHT22;27703;51.980;5.848;2023-03-09T04:37:42;2.20;99.90
42019;DHT22;27703;51.980;5.848;2023-03-09T04:40:12;2.20;99.90
42019;DHT22;27703;51.980;5.848;2023-03-09T04:42:38;2.20;99.90
42019;DHT22;27703;51.980;5.848;2023-03-09T04:45:04;2.20;99.90
42019;DHT22;27703;51.980;5.848;2023-03-09T04:47:30;2.20;99.90
42019;DHT22;27703;51.980;5.848;2023-03-09T04:49:56;2.20;99.90
42019;DHT22;27703;51.980;5.848;2023-03-09T04:52:22;2.20;99.90
42019;DHT22;27703;51.980;5.848;2023-03-09T04:54:47;2.20;99.90
42019;DHT22;27703;51.980;5.848;2023-03-09T04:57:14;2.20;99.90
42019;DHT22;27703;51.980;5.848;2023-03-09T04:59:39;2.20;99.90
42019;DHT22;27703;51.980;5.848;2023-03-09T05:02:05;2.20;99.90
42019;DHT22;27703;51.980;5.848;2023-03-09T05:04:31;2.20;99.90
42019;DHT22;27703;51.980;5.848;2023-03-09T05:06:56;2.20;99.90
42019;DHT22;27703;51.980;5.848;2023-03-09T05:09:22;2.20;99.90
42019;DHT22;27703;51.980;5.848;2023-03-09T05:11:47;2.20;99.90
42019;DHT22;27703;51.980;5.848;2023-03-09T05:14:17;2.20;99.90
42019;DHT22;27703;51.980;5.848;2023-03-09T05:16:44;2.20;99.90
42019;DHT22;27703;51.980;5.848;2023-03-09T05:19:10;2.20;99.90
42019;DHT22;27703;51.980;5.848;2023-03-09T05:21:36;2.20;99.90
42019;DHT22;27703;51.980;5.848;2023-03-09T05:24:03;2.20;99.90
42019;DHT22;27703;51.980;5.848;2023-03-09T05:26:28;2.20;99.90
42019;DHT22;27703;51.980;5.848;2023-03-09T05:28:54;2.20;99.90
42019;DHT22;27703;51.980;5.848;2023-03-09T05:31:20;2.30;99.90
42019;DHT22;27703;51.980;5.848;2023-03-09T05:33:45;2.20;99.90
42019;DHT22;27703;51.980;5.848;2023-03-09T05:36:20;2.20;99.90
42019;DHT22;27703;51.980;5.848;2023-03-09T05:38:47;2.20;99.90
42019;DHT22;27703;51.980;5.848;2023-03-09T05:41:13;2.20;99.90
42019;DHT22;27703;51.980;5.848;2023-03-09T05:43:38;2.20;99.90
42019;DHT22;27703;51.980;5.848;2023-03-09T05:46:08;2.20;99.90
42019;DHT22;27703;51.980;5.848;2023-03-09T05:48:35;2.20;99.90
42019;DHT22;27703;51.980;5.848;2023-03-09T05:51:02;2.20;99.90
42019;DHT22;27703;51.980;5.848;2023-03-09T05:53:27;2.20;99.90
42019;DHT22;27703;51.980;5.848;2023-03-09T05:55:53;2.20;99.90
42019;DHT22;27703;51.980;5.848;2023-03-09T05:58:21;2.20;99.90
42019;DHT22;27703;51.980;5.848;2023-03-09T06:00:46;2.20;99.90
42019;DHT22;27703;51.980;5.848;2023-03-09T06:03:12;2.20;99.90
42019;DHT22;27703;51.980;5.848;2023-03-09T06:05:37;2.30;99.90
42019;DHT22;27703;51.980;5.848;2023-03-09T06:08:03;2.20;99.90
42019;DHT22;27703;51.980;5.848;2023-03-09T06:10:28;2.20;99.90
42019;DHT22;27703;51.980;5.848;2023-03-09T06:12:54;2.20;99.90
42019;DHT22;27703;51.980;5.848;2023-03-09T06:15:20;2.20;99.90
42019;DHT22;27703;51.980;5.848;2023-03-09T06:17:45;2.20;99.90
42019;DHT22;27703;51.980;5.848;2023-03-09T06:20:11;2.20;99.90
42019;DHT22;27703;51.980;5.848;2023-03-09T06:22:37;2.20;99.90
42019;DHT22;27703;51.980;5.848;2023-03-09T06:25:05;2.20;99.90
42019;DHT22;27703;51.980;5.848;2023-03-09T06:27:33;2.20;99.90
42019;DHT22;27703;51.980;5.848;2023-03-09T06:29:59;2.20;99.90
42019;DHT22;27703;51.980;5.848;2023-03-09T06:32:24;2.20;99.90
42019;DHT22;27703;51.980;5.848;2023-03-09T06:34:50;2.20;99.90
42019;DHT22;27703;51.980;5.848;2023-03-09T06:37:15;2.30;99.90
42019;DHT22;27703;51.980;5.848;2023-03-09T06:39:41;2.30;99.90
42019;DHT22;27703;51.980;5.848;2023-03-09T06:42:07;2.30;99.90
42019;DHT22;27703;51.980;5.848;2023-03-09T06:44:32;2.30;99.90
42019;DHT22;27703;51.980;5.848;2023-03-09T06:46:58;2.30;99.90
42019;DHT22;27703;51.980;5.848;2023-03-09T06:49:23;2.30;99.90
42019;DHT22;27703;51.980;5.848;2023-03-09T06:51:49;2.40;99.90
42019;DHT22;27703;51.980;5.848;2023-03-09T06:54:15;2.30;99.90
42019;DHT22;27703;51.980;5.848;2023-03-09T06:56:41;2.40;99.90
42019;DHT22;27703;51.980;5.848;2023-03-09T06:59:07;2.40;99.90
42019;DHT22;27703;51.980;5.848;2023-03-09T07:01:32;2.40;99.90
42019;DHT22;27703;51.980;5.848;2023-03-09T07:03:59;2.40;99.90
42019;DHT22;27703;51.980;5.848;2023-03-09T07:06:24;2.40;99.90
42019;DHT22;27703;51.980;5.848;2023-03-09T07:08:50;2.40;99.90
42019;DHT22;27703;51.980;5.848;2023-03-09T07:11:15;2.40;99.90
42019;DHT22;27703;51.980;5.848;2023-03-09T07:13:41;2.40;99.90
42019;DHT22;27703;51.980;5.848;2023-03-09T07:16:07;2.40;99.90
42019;DHT22;27703;51.980;5.848;2023-03-09T07:18:33;2.40;99.90
42019;DHT22;27703;51.980;5.848;2023-03-09T07:21:02;2.50;99.90
42019;DHT22;27703;51.980;5.848;2023-03-09T07:23:29;2.50;99.90
42019;DHT22;27703;51.980;5.848;2023-03-09T07:25:59;2.50;99.90
42019;DHT22;27703;51.980;5.848;2023-03-09T07:28:24;2.50;99.90
42019;DHT22;27703;51.980;5.848;2023-03-09T07:30:50;2.50;99.90
42019;DHT22;27703;51.980;5.848;2023-03-09T07:33:16;2.60;99.90
42019;DHT22;27703;51.980;5.848;2023-03-09T07:35:41;2.60;99.90
42019;DHT22;27703;51.980;5.848;2023-03-09T07:38:07;2.60;99.90
42019;DHT22;27703;51.980;5.848;2023-03-09T07:40:32;2.60;99.90
42019;DHT22;27703;51.980;5.848;2023-03-09T07:42:58;2.60;99.90
42019;DHT22;27703;51.980;5.848;2023-03-09T07:45:23;2.60;99.90
42019;DHT22;27703;51.980;5.848;2023-03-09T07:47:49;2.70;99.90
42019;DHT22;27703;51.980;5.848;2023-03-09T07:50:16;2.70;99.90
42019;DHT22;27703;51.980;5.848;2023-03-09T07:52:42;2.70;99.90
42019;DHT22;27703;51.980;5.848;2023-03-09T07:55:09;2.70;99.90
42019;DHT22;27703;51.980;5.848;2023-03-09T07:57:35;2.70;99.90
42019;DHT22;27703;51.980;5.848;2023-03-09T08:00:01;2.70;99.90
42019;DHT22;27703;51.980;5.848;2023-03-09T08:02:31;2.80;99.90
42019;DHT22;27703;51.980;5.848;2023-03-09T08:04:56;2.80;99.90
42019;DHT22;27703;51.980;5.848;2023-03-09T08:07:22;2.80;99.90
42019;DHT22;27703;51.980;5.848;2023-03-09T08:09:48;2.80;99.90
42019;DHT22;27703;51.980;5.848;2023-03-09T08:12:13;2.80;99.90
42019;DHT22;27703;51.980;5.848;2023-03-09T08:14:39;2.80;99.90
42019;DHT22;27703;51.980;5.848;2023-03-09T08:17:04;2.80;99.90
42019;DHT22;27703;51.980;5.848;2023-03-09T08:19:30;2.80;99.90
42019;DHT22;27703;51.980;5.848;2023-03-09T08:21:56;2.90;99.90
42019;DHT22;27703;51.980;5.848;2023-03-09T08:24:22;2.90;99.90
42019;DHT22;27703;51.980;5.848;2023-03-09T08:26:47;2.90;99.90
42019;DHT22;27703;51.980;5.848;2023-03-09T08:29:13;2.90;99.90
42019;DHT22;27703;51.980;5.848;2023-03-09T08:31:39;2.90;99.90
42019;DHT22;27703;51.980;5.848;2023-03-09T08:34:05;3.00;99.90
42019;DHT22;27703;51.980;5.848;2023-03-09T08:36:31;3.00;99.90
42019;DHT22;27703;51.980;5.848;2023-03-09T08:38:57;3.00;99.90
42019;DHT22;27703;51.980;5.848;2023-03-09T08:41:22;3.10;99.90
42019;DHT22;27703;51.980;5.848;2023-03-09T08:43:49;3.10;99.90
42019;DHT22;27703;51.980;5.848;2023-03-09T08:46:15;3.10;99.90
42019;DHT22;27703;51.980;5.848;2023-03-09T08:48:41;3.20;99.90
42019;DHT22;27703;51.980;5.848;2023-03-09T08:51:09;3.20;99.90
42019;DHT22;27703;51.980;5.848;2023-03-09T08:53:36;3.20;99.90
42019;DHT22;27703;51.980;5.848;2023-03-09T08:56:03;3.20;99.90
42019;DHT22;27703;51.980;5.848;2023-03-09T08:58:29;3.30;99.90
42019;DHT22;27703;51.980;5.848;2023-03-09T09:00:54;3.30;99.90
42019;DHT22;27703;51.980;5.848;2023-03-09T09:03:20;3.30;99.90
42019;DHT22;27703;51.980;5.848;2023-03-09T09:05:45;3.30;99.90
42019;DHT22;27703;51.980;5.848;2023-03-09T09:08:11;3.30;99.90
42019;DHT22;27703;51.980;5.848;2023-03-09T09:10:40;3.30;99.90
42019;DHT22;27703;51.980;5.848;2023-03-09T09:13:08;3.30;99.90
42019;DHT22;27703;51.980;5.848;2023-03-09T09:15:33;3.30;99.90
42019;DHT22;27703;51.980;5.848;2023-03-09T09:17:59;3.40;99.90
42019;DHT22;27703;51.980;5.848;2023-03-09T09:20:24;3.40;99.90
42019;DHT22;27703;51.980;5.848;2023-03-09T09:22:50;3.40;99.90
42019;DHT22;27703;51.980;5.848;2023-03-09T09:25:16;3.40;99.90
42019;DHT22;27703;51.980;5.848;2023-03-09T09:27:41;3.50;99.90
42019;DHT22;27703;51.980;5.848;2023-03-09T09:30:08;3.50;99.90
42019;DHT22;27703;51.980;5.848;2023-03-09T09:32:36;3.50;99.90
42019;DHT22;27703;51.980;5.848;2023-03-09T09:35:03;3.50;99.90
42019;DHT22;27703;51.980;5.848;2023-03-09T09:37:29;3.50;99.90
42019;DHT22;27703;51.980;5.848;2023-03-09T09:39:55;3.50;99.90
42019;DHT22;27703;51.980;5.848;2023-03-09T09:42:33;3.50;99.90
42019;DHT22;27703;51.980;5.848;2023-03-09T09:45:01;3.50;99.90
42019;DHT22;27703;51.980;5.848;2023-03-09T09:47:29;3.50;99.90
42019;DHT22;27703;51.980;5.848;2023-03-09T09:49:58;3.50;99.90
42019;DHT22;27703;51.980;5.848;2023-03-09T09:52:46;3.60;99.90
42019;DHT22;27703;51.980;5.848;2023-03-09T09:55:31;3.60;99.90
42019;DHT22;27703;51.980;5.848;2023-03-09T09:58:27;3.70;99.90
42019;DHT22;27703;51.980;5.848;2023-03-09T10:00:57;3.70;99.90
42019;DHT22;27703;51.980;5.848;2023-03-09T10:03:34;3.70;99.90
42019;DHT22;27703;51.980;5.848;2023-03-09T10:06:08;3.80;99.90
42019;DHT22;27703;51.980;5.848;2023-03-09T10:11:24;3.80;99.90
42019;DHT22;27703;51.980;5.848;2023-03-09T10:16:54;3.80;99.90
42019;DHT22;27703;51.980;5.848;2023-03-09T10:19:30;3.90;99.90
42019;DHT22;27703;51.980;5.848;2023-03-09T10:22:01;3.80;99.90
42019;DHT22;27703;51.980;5.848;2023-03-09T10:24:32;3.90;99.90
42019;DHT22;27703;51.980;5.848;2023-03-09T10:27:17;3.90;99.90
42019;DHT22;27703;51.980;5.848;2023-03-09T10:38:21;3.90;99.90
42019;DHT22;27703;51.980;5.848;2023-03-09T10:40:55;3.90;99.90
42019;DHT22;27703;51.980;5.848;2023-03-09T10:43:35;4.00;99.90
42019;DHT22;27703;51.980;5.848;2023-03-09T10:46:22;4.00;99.90
42019;DHT22;27703;51.980;5.848;2023-03-09T10:48:49;4.00;99.90
42019;DHT22;27703;51.980;5.848;2023-03-09T10:51:25;4.00;99.90
42019;DHT22;27703;51.980;5.848;2023-03-09T10:53:55;4.00;99.90
42019;DHT22;27703;51.980;5.848;2023-03-09T10:56:27;4.00;99.90
42019;DHT22;27703;51.980;5.848;2023-03-09T11:01:38;4.00;99.90
42019;DHT22;27703;51.980;5.848;2023-03-09T11:07:30;4.00;99.90
42019;DHT22;27703;51.980;5.848;2023-03-09T11:09:57;4.00;99.90
42019;DHT22;27703;51.980;5.848;2023-03-09T11:12:37;4.00;99.90
42019;DHT22;27703;51.980;5.848;2023-03-09T11:15:29;4.10;99.90
42019;DHT22;27703;51.980;5.848;2023-03-09T11:17:56;4.10;99.90
42019;DHT22;27703;51.980;5.848;2023-03-09T11:28:16;4.10;99.90
42019;DHT22;27703;51.980;5.848;2023-03-09T11:30:45;4.10;99.90
42019;DHT22;27703;51.980;5.848;2023-03-09T11:33:16;4.10;99.90
42019;DHT22;27703;51.980;5.848;2023-03-09T11:35:44;4.10;99.90
42019;DHT22;27703;51.980;5.848;2023-03-09T11:38:12;4.10;99.90
42019;DHT22;27703;51.980;5.848;2023-03-09T11:40:39;4.20;99.90
42019;DHT22;27703;51.980;5.848;2023-03-09T11:45:39;4.20;99.90
42019;DHT22;27703;51.980;5.848;2023-03-09T11:53:56;4.10;99.90
42019;DHT22;27703;51.980;5.848;2023-03-09T11:56:29;4.10;99.90
42019;DHT22;27703;51.980;5.848;2023-03-09T12:04:33;4.10;99.90
42019;DHT22;27703;51.980;5.848;2023-03-09T12:15:22;4.10;99.90
42019;DHT22;27703;51.980;5.848;2023-03-09T12:17:55;4.10;99.90
42019;DHT22;27703;51.980;5.848;2023-03-09T12:20:32;4.00;99.90
42019;DHT22;27703;51.980;5.848;2023-03-09T12:22:58;4.00;99.90
42019;DHT22;27703;51.980;5.848;2023-03-09T12:25:25;4.00;99.90
42019;DHT22;27703;51.980;5.848;2023-03-09T12:27:54;4.00;99.90
42019;DHT22;27703;51.980;5.848;2023-03-09T12:32:57;4.00;99.90
42019;DHT22;27703;51.980;5.848;2023-03-09T12:38:18;3.90;99.90
42019;DHT22;27703;51.980;5.848;2023-03-09T12:40:44;3.90;99.90
42019;DHT22;27703;51.980;5.848;2023-03-09T12:43:31;3.90;99.90
42019;DHT22;27703;51.980;5.848;2023-03-09T12:49:01;3.90;99.90
42019;DHT22;27703;51.980;5.848;2023-03-09T12:51:34;3.80;99.90
42019;DHT22;27703;51.980;5.848;2023-03-09T12:54:15;3.80;99.90
42019;DHT22;27703;51.980;5.848;2023-03-09T12:56:42;3.80;99.90
42019;DHT22;27703;51.980;5.848;2023-03-09T12:59:09;3.70;99.90
42019;DHT22;27703;51.980;5.848;2023-03-09T13:01:35;3.70;99.90
42019;DHT22;27703;51.980;5.848;2023-03-09T13:06:56;3.70;99.90
42019;DHT22;27703;51.980;5.848;2023-03-09T13:24:34;3.70;99.90
42019;DHT22;27703;51.980;5.848;2023-03-09T13:27:25;3.80;99.90
42019;DHT22;27703;51.980;5.848;2023-03-09T13:29:53;3.80;99.90
42019;DHT22;27703;51.980;5.848;2023-03-09T13:32:26;3.80;99.90
42019;DHT22;27703;51.980;5.848;2023-03-09T13:34:54;3.70;99.90
42019;DHT22;27703;51.980;5.848;2023-03-09T13:37:23;3.70;99.90
42019;DHT22;27703;51.980;5.848;2023-03-09T13:40:01;3.70;99.90
42019;DHT22;27703;51.980;5.848;2023-03-09T13:42:29;3.70;99.90
42019;DHT22;27703;51.980;5.848;2023-03-09T13:44:56;3.80;99.90
42019;DHT22;27703;51.980;5.848;2023-03-09T13:47:28;3.80;99.90
42019;DHT22;27703;51.980;5.848;2023-03-09T13:49:54;3.80;99.90
42019;DHT22;27703;51.980;5.848;2023-03-09T13:52:20;3.80;99.90
42019;DHT22;27703;51.980;5.848;2023-03-09T13:54:54;3.70;99.90
42019;DHT22;27703;51.980;5.848;2023-03-09T13:57:32;3.70;99.90
42019;DHT22;27703;51.980;5.848;2023-03-09T14:02:29;3.80;99.90
42019;DHT22;27703;51.980;5.848;2023-03-09T14:07:31;3.70;99.90
42019;DHT22;27703;51.980;5.848;2023-03-09T14:10:02;3.70;99.90
42019;DHT22;27703;51.980;5.848;2023-03-09T14:12:34;3.70;99.90
42019;DHT22;27703;51.980;5.848;2023-03-09T14:15:03;3.70;99.90
42019;DHT22;27703;51.980;5.848;2023-03-09T14:17:32;3.70;99.90
42019;DHT22;27703;51.980;5.848;2023-03-09T14:19:59;3.70;99.90
42019;DHT22;27703;51.980;5.848;2023-03-09T14:22:30;3.70;99.90
42019;DHT22;27703;51.980;5.848;2023-03-09T14:24:57;3.70;99.90
42019;DHT22;27703;51.980;5.848;2023-03-09T14:27:35;3.70;99.90
42019;DHT22;27703;51.980;5.848;2023-03-09T14:30:30;3.70;99.90
42019;DHT22;27703;51.980;5.848;2023-03-09T14:33:26;3.70;99.90
42019;DHT22;27703;51.980;5.848;2023-03-09T14:38:49;3.70;99.90
42019;DHT22;27703;51.980;5.848;2023-03-09T14:41:20;3.70;99.90
42019;DHT22;27703;51.980;5.848;2023-03-09T14:43:46;3.70;99.90
42019;DHT22;27703;51.980;5.848;2023-03-09T14:46:18;3.70;99.90
42019;DHT22;27703;51.980;5.848;2023-03-09T14:48:49;3.70;99.90
42019;DHT22;27703;51.980;5.848;2023-03-09T14:51:29;3.60;99.90
42019;DHT22;27703;51.980;5.848;2023-03-09T14:56:28;3.60;99.90
42019;DHT22;27703;51.980;5.848;2023-03-09T14:58:54;3.60;99.90
42019;DHT22;27703;51.980;5.848;2023-03-09T15:01:21;3.60;99.90
42019;DHT22;27703;51.980;5.848;2023-03-09T15:03:47;3.70;99.90
42019;DHT22;27703;51.980;5.848;2023-03-09T15:06:14;3.60;99.90
42019;DHT22;27703;51.980;5.848;2023-03-09T15:08:39;3.70;99.90
42019;DHT22;27703;51.980;5.848;2023-03-09T15:11:05;3.60;99.90
42019;DHT22;27703;51.980;5.848;2023-03-09T15:13:31;3.70;99.90
42019;DHT22;27703;51.980;5.848;2023-03-09T15:15:58;3.60;99.90
42019;DHT22;27703;51.980;5.848;2023-03-09T15:18:24;3.60;99.90
42019;DHT22;27703;51.980;5.848;2023-03-09T15:20:49;3.70;99.90
42019;DHT22;27703;51.980;5.848;2023-03-09T15:23:15;3.60;99.90
42019;DHT22;27703;51.980;5.848;2023-03-09T15:25:41;3.60;99.90
42019;DHT22;27703;51.980;5.848;2023-03-09T15:28:08;3.60;99.90
42019;DHT22;27703;51.980;5.848;2023-03-09T15:30:33;3.60;99.90
42019;DHT22;27703;51.980;5.848;2023-03-09T15:32:59;3.70;99.90
42019;DHT22;27703;51.980;5.848;2023-03-09T15:35:25;3.70;99.90
42019;DHT22;27703;51.980;5.848;2023-03-09T15:37:51;3.70;99.90
42019;DHT22;27703;51.980;5.848;2023-03-09T15:40:17;3.60;99.90
42019;DHT22;27703;51.980;5.848;2023-03-09T15:42:43;3.60;99.90
42019;DHT22;27703;51.980;5.848;2023-03-09T15:45:12;3.60;99.90
42019;DHT22;27703;51.980;5.848;2023-03-09T15:47:38;3.60;99.90
42019;DHT22;27703;51.980;5.848;2023-03-09T15:50:04;3.60;99.90
42019;DHT22;27703;51.980;5.848;2023-03-09T15:52:33;3.60;99.90
42019;DHT22;27703;51.980;5.848;2023-03-09T15:54:58;3.50;99.90
42019;DHT22;27703;51.980;5.848;2023-03-09T15:57:24;3.60;99.90
42019;DHT22;27703;51.980;5.848;2023-03-09T15:59:50;3.60;99.90
42019;DHT22;27703;51.980;5.848;2023-03-09T16:02:17;3.60;99.90
42019;DHT22;27703;51.980;5.848;2023-03-09T16:04:43;3.50;99.90
42019;DHT22;27703;51.980;5.848;2023-03-09T16:07:08;3.60;99.90
42019;DHT22;27703;51.980;5.848;2023-03-09T16:09:34;3.60;99.90
42019;DHT22;27703;51.980;5.848;2023-03-09T16:11:59;3.50;99.90
42019;DHT22;27703;51.980;5.848;2023-03-09T16:14:25;3.60;99.90
42019;DHT22;27703;51.980;5.848;2023-03-09T16:16:51;3.60;99.90
42019;DHT22;27703;51.980;5.848;2023-03-09T16:19:16;3.50;99.90
42019;DHT22;27703;51.980;5.848;2023-03-09T16:21:42;3.50;99.90
42019;DHT22;27703;51.980;5.848;2023-03-09T16:24:07;3.50;99.90
42019;DHT22;27703;51.980;5.848;2023-03-09T16:26:33;3.50;99.90
42019;DHT22;27703;51.980;5.848;2023-03-09T16:28:58;3.50;99.90
42019;DHT22;27703;51.980;5.848;2023-03-09T16:31:25;3.50;99.90
42019;DHT22;27703;51.980;5.848;2023-03-09T16:33:51;3.50;99.90
42019;DHT22;27703;51.980;5.848;2023-03-09T16:36:17;3.50;99.90
42019;DHT22;27703;51.980;5.848;2023-03-09T16:38:43;3.50;99.90
42019;DHT22;27703;51.980;5.848;2023-03-09T16:41:12;3.50;99.90
42019;DHT22;27703;51.980;5.848;2023-03-09T16:43:38;3.50;99.90
42019;DHT22;27703;51.980;5.848;2023-03-09T16:46:04;3.50;99.90
42019;DHT22;27703;51.980;5.848;2023-03-09T16:48:31;3.50;99.90
42019;DHT22;27703;51.980;5.848;2023-03-09T16:50:57;3.50;99.90
42019;DHT22;27703;51.980;5.848;2023-03-09T16:53:24;3.50;99.90
42019;DHT22;27703;51.980;5.848;2023-03-09T16:55:58;3.50;99.90
42019;DHT22;27703;51.980;5.848;2023-03-09T16:58:24;3.50;99.90
42019;DHT22;27703;51.980;5.848;2023-03-09T17:00:50;3.50;99.90
42019;DHT22;27703;51.980;5.848;2023-03-09T17:03:16;3.50;99.90
42019;DHT22;27703;51.980;5.848;2023-03-09T17:05:43;3.50;99.90
42019;DHT22;27703;51.980;5.848;2023-03-09T17:08:09;3.50;99.90
42019;DHT22;27703;51.980;5.848;2023-03-09T17:10:35;3.50;99.90
42019;DHT22;27703;51.980;5.848;2023-03-09T17:13:00;3.50;99.90
42019;DHT22;27703;51.980;5.848;2023-03-09T17:15:26;3.40;99.90
42019;DHT22;27703;51.980;5.848;2023-03-09T17:17:51;3.40;99.90
42019;DHT22;27703;51.980;5.848;2023-03-09T17:20:17;3.40;99.90
42019;DHT22;27703;51.980;5.848;2023-03-09T17:22:43;3.40;99.90